Time;durP1;ratioP1;P1;durP2;ratioP2;P2;SDS_P1;SDS_P2;PMS_P1;PMS_P2;Temp;Humidity;BMP_temperature;BMP_pressure;BME280_temperature;BME280_humidity;BME280_pressure;Samples;Min_cycle;Max_cycle;Signal;HPM_P1;HPM_P2
2021/08/29 00:00:38;;;;;;;7.82;2.90;;;14.70;99.90;;;;;;5097035;28;20020;-68
2021/08/29 00:03:03;;;;;;;4.72;2.55;;;14.60;99.90;;;;;;5096803;28;20028;-68
2021/08/29 00:05:29;;;;;;;4.18;3.00;;;14.50;99.90;;;;;;5096804;28;20021;-68
2021/08/29 00:07:55;;;;;;;11.48;4.25;;;14.30;99.90;;;;;;5096904;28;20102;-68
2021/08/29 00:10:21;;;;;;;6.78;2.85;;;14.50;99.90;;;;;;5096695;28;20048;-68
2021/08/29 00:12:47;;;;;;;5.47;3.30;;;14.40;99.90;;;;;;5096797;28;20028;-67
2021/08/29 00:15:13;;;;;;;8.27;2.92;;;14.40;99.90;;;;;;5096598;28;20031;-67
2021/08/29 00:17:39;;;;;;;11.10;2.60;;;14.40;99.90;;;;;;5095115;28;20026;-67
2021/08/29 00:20:05;;;;;;;11.07;3.92;;;14.40;99.90;;;;;;5096660;28;20016;-68
2021/08/29 00:22:31;;;;;;;8.60;3.42;;;14.30;99.90;;;;;;5096766;28;20484;-67
2021/08/29 00:24:57;;;;;;;8.52;3.67;;;14.30;99.90;;;;;;5096351;28;20042;-68
2021/08/29 00:27:23;;;;;;;7.55;3.15;;;14.30;99.90;;;;;;5096688;28;20035;-68
2021/08/29 00:29:48;;;;;;;9.05;4.20;;;14.30;99.90;;;;;;5096438;28;20024;-68
2021/08/29 00:32:14;;;;;;;12.35;3.40;;;14.40;99.90;;;;;;5096307;28;20032;-68
2021/08/29 00:34:40;;;;;;;12.02;3.90;;;14.30;99.90;;;;;;5096358;28;20021;-68
2021/08/29 00:37:06;;;;;;;12.75;3.28;;;14.20;99.90;;;;;;5096792;28;20035;-67
2021/08/29 00:39:35;;;;;;;12.80;4.63;;;14.40;99.90;;;;;;5096180;28;20555;-67
2021/08/29 00:42:04;;;;;;;7.97;3.42;;;14.20;99.90;;;;;;5096714;28;20077;-68
2021/08/29 00:44:30;;;;;;;5.43;3.00;;;14.00;99.90;;;;;;5096311;28;20023;-68
2021/08/29 00:46:56;;;;;;;7.70;3.53;;;14.20;99.90;;;;;;5096411;28;20020;-68
2021/08/29 00:49:22;;;;;;;9.38;3.47;;;14.00;99.90;;;;;;5096070;28;20027;-68
2021/08/29 00:51:54;;;;;;;7.85;3.60;;;14.20;99.90;;;;;;5097959;28;20024;-68
2021/08/29 00:54:27;;;;;;;9.32;3.70;;;14.20;99.90;;;;;;5100175;28;20101;-67
2021/08/29 00:56:53;;;;;;;7.13;3.28;;;14.00;99.90;;;;;;5099948;28;20036;-68
2021/08/29 00:59:19;;;;;;;10.48;3.78;;;14.10;99.90;;;;;;5099996;28;20028;-68
2021/08/29 01:01:55;;;;;;;7.63;3.90;;;14.20;99.90;;;;;;5099931;28;20012;-68
2021/08/29 01:04:26;;;;;;;7.93;3.28;;;14.20;99.90;;;;;;5099955;28;20020;-68
2021/08/29 01:07:06;;;;;;;10.75;3.88;;;14.30;99.90;;;;;;5099923;28;20085;-68
2021/08/29 01:09:34;;;;;;;10.05;4.03;;;13.90;99.90;;;;;;5099803;28;20016;-68
2021/08/29 01:12:00;;;;;;;14.65;3.95;;;13.80;99.90;;;;;;5099717;28;20020;-67
2021/08/29 01:14:29;;;;;;;8.48;3.63;;;14.20;99.90;;;;;;5099912;28;20020;-68
2021/08/29 01:16:57;;;;;;;5.13;3.67;;;13.80;99.90;;;;;;5099635;28;20031;-68
2021/08/29 01:20:07;;;;;;;9.52;4.00;;;14.10;99.90;;;;;;5099486;28;20513;-68
2021/08/29 01:22:34;;;;;;;8.82;3.97;;;14.00;99.90;;;;;;5090637;28;20039;-68
2021/08/29 01:25:01;;;;;;;11.50;4.07;;;13.90;99.90;;;;;;5099450;28;20012;-68
2021/08/29 01:27:34;;;;;;;10.40;3.00;;;14.00;99.90;;;;;;5099668;28;20024;-68
2021/08/29 01:30:02;;;;;;;14.75;4.43;;;13.90;99.90;;;;;;5099455;28;20042;-68
2021/08/29 01:32:28;;;;;;;8.07;3.70;;;13.80;99.90;;;;;;5098967;28;20032;-68
2021/08/29 01:34:55;;;;;;;8.15;3.47;;;14.00;99.90;;;;;;5099502;28;20032;-68
2021/08/29 01:37:21;;;;;;;9.50;3.63;;;13.80;99.90;;;;;;5099451;28;20035;-68
2021/08/29 01:39:48;;;;;;;9.93;4.30;;;13.80;99.90;;;;;;5099322;28;20027;-68
2021/08/29 01:42:14;;;;;;;8.10;3.53;;;13.80;99.90;;;;;;5099237;28;20087;-68
2021/08/29 01:44:43;;;;;;;7.75;3.75;;;14.00;99.90;;;;;;5099328;28;20016;-68
2021/08/29 01:47:09;;;;;;;9.13;3.65;;;13.80;99.90;;;;;;5098956;28;20048;-67
2021/08/29 01:49:35;;;;;;;7.07;3.30;;;13.60;99.90;;;;;;5099489;28;20030;-68
2021/08/29 01:52:01;;;;;;;8.55;3.60;;;13.70;99.90;;;;;;5099050;28;20099;-68
2021/08/29 01:54:27;;;;;;;8.20;4.10;;;13.90;99.90;;;;;;5099168;28;20031;-68
2021/08/29 01:57:04;;;;;;;8.15;4.13;;;13.70;99.90;;;;;;5098803;28;20036;-68
2021/08/29 01:59:30;;;;;;;14.45;4.88;;;13.90;99.90;;;;;;5099054;28;20024;-68
2021/08/29 02:01:58;;;;;;;11.98;3.90;;;13.60;99.90;;;;;;5098857;28;20039;-68
2021/08/29 02:04:25;;;;;;;10.73;3.67;;;13.60;99.90;;;;;;5097691;28;20020;-68
2021/08/29 02:07:09;;;;;;;10.35;3.45;;;13.80;99.90;;;;;;5098774;28;20034;-68
2021/08/29 02:09:39;;;;;;;8.60;3.83;;;13.80;99.90;;;;;;5098962;28;20024;-68
2021/08/29 02:12:07;;;;;;;13.80;4.10;;;13.80;99.90;;;;;;5098685;28;20047;-68
2021/08/29 02:14:39;;;;;;;7.50;3.75;;;13.80;99.90;;;;;;5098910;28;20021;-68
2021/08/29 02:17:05;;;;;;;7.47;3.70;;;13.60;99.90;;;;;;5098676;28;20465;-68
2021/08/29 02:19:35;;;;;;;4.72;3.10;;;13.80;99.90;;;;;;5097108;28;20036;-68
2021/08/29 02:22:01;;;;;;;9.05;4.20;;;13.80;99.90;;;;;;5098576;28;20107;-68
2021/08/29 02:24:29;;;;;;;6.35;3.33;;;13.50;99.90;;;;;;5098562;28;20035;-68
2021/08/29 02:26:56;;;;;;;10.82;3.40;;;13.40;99.90;;;;;;5098476;28;20016;-68
2021/08/29 02:29:22;;;;;;;7.00;3.03;;;13.50;99.90;;;;;;5098290;28;20153;-68
2021/08/29 02:31:49;;;;;;;8.25;3.42;;;13.50;99.90;;;;;;5098254;28;20055;-68
2021/08/29 02:34:16;;;;;;;9.82;3.45;;;13.70;99.90;;;;;;5097935;28;20024;-68
2021/08/29 02:36:42;;;;;;;7.53;4.03;;;13.60;99.90;;;;;;5098431;28;20107;-68
2021/08/29 02:39:10;;;;;;;7.32;4.32;;;13.20;99.90;;;;;;5097959;28;20016;-68
2021/08/29 02:41:36;;;;;;;8.65;3.95;;;13.30;99.90;;;;;;5098445;28;20028;-68
2021/08/29 02:44:04;;;;;;;8.18;4.68;;;13.40;99.90;;;;;;5098094;28;20380;-68
2021/08/29 02:46:30;;;;;;;7.40;3.92;;;13.40;99.90;;;;;;5098236;28;20016;-68
2021/08/29 02:48:56;;;;;;;9.80;3.53;;;13.50;99.90;;;;;;5097800;28;20028;-68
2021/08/29 02:51:23;;;;;;;5.72;3.53;;;13.50;99.90;;;;;;5098059;28;20028;-68
2021/08/29 02:53:50;;;;;;;9.05;4.40;;;13.70;99.90;;;;;;5097752;28;20059;-68
2021/08/29 02:56:18;;;;;;;10.35;4.72;;;13.60;99.90;;;;;;5098091;28;20102;-68
2021/08/29 02:58:46;;;;;;;11.75;5.05;;;13.40;99.90;;;;;;5097438;28;20089;-68
2021/08/29 03:01:12;;;;;;;9.15;4.68;;;13.70;99.90;;;;;;5097820;28;20020;-68
2021/08/29 03:03:38;;;;;;;10.68;4.57;;;13.70;99.90;;;;;;5097438;28;20019;-67
2021/08/29 03:06:04;;;;;;;12.85;5.95;;;13.40;99.90;;;;;;5098096;28;20428;-68
2021/08/29 03:08:30;;;;;;;16.98;5.32;;;13.60;99.90;;;;;;5097421;28;20103;-68
2021/08/29 03:10:57;;;;;;;11.27;4.50;;;13.50;99.90;;;;;;5097761;28;20066;-68
2021/08/29 03:13:24;;;;;;;10.27;5.22;;;13.50;99.90;;;;;;5097604;28;20031;-68
2021/08/29 03:15:50;;;;;;;12.15;5.05;;;13.60;99.90;;;;;;5097570;28;20035;-68
2021/08/29 03:18:16;;;;;;;11.52;4.40;;;13.30;99.90;;;;;;5097092;28;20028;-68
2021/08/29 03:20:43;;;;;;;11.63;5.78;;;13.60;99.90;;;;;;5097628;28;20043;-68
2021/08/29 03:23:08;;;;;;;9.88;4.28;;;13.60;99.90;;;;;;5097100;28;20396;-68
2021/08/29 03:25:35;;;;;;;7.38;3.92;;;13.50;99.90;;;;;;5097554;28;20023;-68
2021/08/29 03:28:01;;;;;;;13.90;4.25;;;13.50;99.90;;;;;;5097197;28;20027;-68
2021/08/29 03:30:27;;;;;;;12.20;4.78;;;13.20;99.90;;;;;;5097419;28;20020;-68
2021/08/29 03:32:53;;;;;;;8.20;5.07;;;13.40;99.90;;;;;;5096600;28;20016;-68
2021/08/29 03:35:19;;;;;;;10.73;5.90;;;13.60;99.90;;;;;;5097386;28;20527;-68
2021/08/29 03:37:45;;;;;;;7.43;4.05;;;13.50;99.90;;;;;;5096976;28;20016;-68
2021/08/29 03:40:11;;;;;;;8.55;4.38;;;13.70;99.90;;;;;;5097163;28;20024;-68
2021/08/29 03:42:39;;;;;;;11.15;6.32;;;13.30;99.90;;;;;;5097091;28;20061;-68
2021/08/29 03:45:07;;;;;;;8.82;5.00;;;13.50;99.90;;;;;;5097394;28;20381;-68
2021/08/29 03:47:35;;;;;;;7.07;3.95;;;13.10;99.90;;;;;;5096790;28;20012;-68
2021/08/29 03:50:02;;;;;;;7.15;3.92;;;13.60;99.90;;;;;;5097050;28;20020;-68
2021/08/29 03:52:28;;;;;;;7.72;3.63;;;13.30;99.90;;;;;;5096857;28;20024;-68
2021/08/29 03:54:54;;;;;;;10.90;5.15;;;13.40;99.90;;;;;;5096883;28;20104;-68
2021/08/29 03:57:21;;;;;;;9.00;5.28;;;13.30;99.90;;;;;;5096641;28;20123;-68
2021/08/29 03:59:47;;;;;;;6.78;3.38;;;13.40;99.90;;;;;;5096811;28;20039;-68
2021/08/29 04:02:13;;;;;;;12.52;5.30;;;13.20;99.90;;;;;;5096388;28;20023;-68
2021/08/29 04:04:39;;;;;;;10.10;5.72;;;13.20;99.90;;;;;;5096912;28;20024;-68
2021/08/29 04:07:06;;;;;;;7.20;3.88;;;13.20;99.90;;;;;;5096869;28;20012;-68
2021/08/29 04:09:33;;;;;;;6.18;4.10;;;13.50;99.90;;;;;;5096731;28;20162;-68
2021/08/29 04:12:02;;;;;;;10.13;3.83;;;13.30;99.90;;;;;;5096563;28;20020;-68
2021/08/29 04:14:30;;;;;;;7.63;4.75;;;13.20;99.90;;;;;;5075456;28;20456;-68
2021/08/29 04:16:59;;;;;;;14.77;5.97;;;13.10;99.90;;;;;;5083378;28;20031;-68
2021/08/29 04:19:26;;;;;;;9.60;5.05;;;12.90;99.90;;;;;;5096510;28;20032;-68
2021/08/29 04:21:53;;;;;;;8.75;3.97;;;13.10;99.90;;;;;;5096734;28;20099;-68
2021/08/29 04:24:20;;;;;;;10.73;5.50;;;13.10;99.90;;;;;;5096602;28;20020;-68
2021/08/29 04:26:46;;;;;;;4.88;3.92;;;13.10;99.90;;;;;;5098266;28;20046;-68
2021/08/29 04:29:13;;;;;;;7.40;3.67;;;12.90;99.90;;;;;;5100817;28;20020;-68
2021/08/29 04:31:43;;;;;;;8.05;4.32;;;12.80;99.90;;;;;;5100629;28;20617;-68
2021/08/29 04:34:10;;;;;;;10.48;4.80;;;13.10;99.90;;;;;;5100325;28;20032;-68
2021/08/29 04:36:37;;;;;;;10.45;4.68;;;12.90;99.90;;;;;;5100806;28;20055;-68
2021/08/29 04:39:06;;;;;;;9.38;4.72;;;13.40;99.90;;;;;;5100615;28;20024;-68
2021/08/29 04:41:32;;;;;;;8.15;4.63;;;12.80;99.90;;;;;;5100602;28;20079;-68
2021/08/29 04:43:58;;;;;;;16.75;5.82;;;12.90;99.90;;;;;;5100315;28;20020;-68
2021/08/29 04:46:24;;;;;;;7.15;4.25;;;12.60;99.90;;;;;;5100467;28;20023;-68
2021/08/29 04:48:50;;;;;;;10.63;5.07;;;13.10;99.90;;;;;;5100032;28;20024;-68
2021/08/29 04:51:16;;;;;;;6.88;4.53;;;13.00;99.90;;;;;;5100371;28;20024;-68
2021/08/29 04:53:42;;;;;;;16.20;5.43;;;12.80;99.90;;;;;;5100104;28;20024;-68
2021/08/29 04:56:08;;;;;;;10.77;5.28;;;12.90;99.90;;;;;;5100337;28;20111;-68
2021/08/29 04:58:33;;;;;;;9.40;4.65;;;13.20;99.90;;;;;;5100127;28;20507;-68
2021/08/29 05:00:59;;;;;;;9.00;4.65;;;13.10;99.90;;;;;;5100222;28;20017;-68
2021/08/29 05:03:25;;;;;;;12.27;5.38;;;12.90;99.90;;;;;;5099702;28;20377;-68
2021/08/29 05:05:51;;;;;;;12.70;6.00;;;12.90;99.90;;;;;;5100219;28;20021;-68
2021/08/29 05:08:17;;;;;;;11.55;5.53;;;12.60;99.90;;;;;;5099702;28;20044;-68
2021/08/29 05:10:43;;;;;;;23.20;6.60;;;13.20;99.90;;;;;;5100094;28;20476;-68
2021/08/29 05:13:09;;;;;;;19.77;7.57;;;13.00;99.90;;;;;;5099716;28;20071;-68
2021/08/29 05:15:34;;;;;;;11.70;5.50;;;13.20;99.90;;;;;;5098703;28;20037;-68
2021/08/29 05:18:00;;;;;;;9.00;5.70;;;13.10;99.90;;;;;;5099375;28;20032;-68
2021/08/29 05:20:26;;;;;;;12.20;5.72;;;12.80;99.90;;;;;;5099974;28;20012;-68
2021/08/29 05:22:52;;;;;;;11.20;6.38;;;13.30;99.90;;;;;;5099592;28;20073;-68
2021/08/29 05:25:18;;;;;;;14.27;5.32;;;13.00;99.90;;;;;;5099759;28;20091;-68
2021/08/29 05:27:44;;;;;;;11.25;5.82;;;13.20;99.90;;;;;;5099572;28;20103;-68
2021/08/29 05:30:10;;;;;;;13.75;5.30;;;12.90;99.90;;;;;;5099665;28;20020;-68
2021/08/29 05:32:36;;;;;;;9.02;5.15;;;12.80;99.90;;;;;;5099162;28;20400;-69
2021/08/29 05:35:03;;;;;;;16.05;6.13;;;12.80;99.90;;;;;;5100023;28;20031;-68
2021/08/29 05:37:29;;;;;;;18.45;6.47;;;13.00;99.90;;;;;;5098472;28;20111;-68
2021/08/29 05:39:55;;;;;;;9.43;4.88;;;13.20;99.90;;;;;;5098869;28;20020;-68
2021/08/29 05:42:21;;;;;;;10.35;5.68;;;13.10;99.90;;;;;;5099355;28;20052;-68
2021/08/29 05:44:47;;;;;;;17.42;6.80;;;12.90;99.90;;;;;;5099207;28;20020;-68
2021/08/29 05:47:13;;;;;;;12.25;5.63;;;13.00;99.90;;;;;;5098902;28;20100;-68
2021/08/29 05:49:39;;;;;;;8.25;5.32;;;13.10;99.90;;;;;;5099246;28;20031;-68
2021/08/29 05:52:05;;;;;;;11.95;6.07;;;13.20;99.90;;;;;;5099247;28;20024;-68
2021/08/29 05:54:31;;;;;;;15.68;7.20;;;13.00;99.90;;;;;;5099086;28;20022;-68
2021/08/29 05:56:57;;;;;;;9.63;5.95;;;13.00;99.90;;;;;;5098881;28;20020;-68
2021/08/29 05:59:23;;;;;;;11.60;5.68;;;13.20;99.90;;;;;;5098947;28;20395;-68
2021/08/29 06:01:48;;;;;;;15.48;5.93;;;13.20;99.90;;;;;;5098855;28;20027;-68
2021/08/29 06:04:14;;;;;;;15.70;6.80;;;13.50;99.90;;;;;;5097418;28;20514;-68
2021/08/29 06:06:40;;;;;;;17.05;6.60;;;13.50;99.90;;;;;;5098911;28;20020;-68
2021/08/29 06:09:06;;;;;;;11.52;5.93;;;13.70;99.90;;;;;;5097570;28;20069;-68
2021/08/29 06:11:33;;;;;;;16.38;6.15;;;13.40;99.90;;;;;;5098754;28;20388;-68
2021/08/29 06:13:59;;;;;;;13.85;5.97;;;13.80;99.90;;;;;;5098829;28;20069;-68
2021/08/29 06:16:26;;;;;;;10.13;5.22;;;13.80;99.90;;;;;;5098690;28;20073;-68
2021/08/29 06:18:52;;;;;;;11.77;5.55;;;14.10;99.90;;;;;;5098339;28;20143;-68
2021/08/29 06:21:18;;;;;;;14.43;6.53;;;13.80;99.90;;;;;;5098783;28;20078;-68
2021/08/29 06:23:44;;;;;;;11.45;4.97;;;14.20;99.90;;;;;;5098407;28;20020;-68
2021/08/29 06:26:10;;;;;;;16.23;4.82;;;14.60;99.90;;;;;;5098432;28;20471;-68
2021/08/29 06:28:36;;;;;;;11.68;5.07;;;14.60;99.90;;;;;;5098665;28;20103;-69
2021/08/29 06:31:01;;;;;;;13.63;5.75;;;14.50;99.90;;;;;;5098425;28;20032;-69
2021/08/29 06:33:27;;;;;;;10.75;4.95;;;14.60;99.90;;;;;;5097876;28;20032;-68
2021/08/29 06:35:55;;;;;;;13.23;5.10;;;15.00;99.90;;;;;;5098267;28;20028;-68
2021/08/29 06:38:21;;;;;;;8.57;4.25;;;14.80;99.90;;;;;;5098158;28;20063;-68
2021/08/29 06:40:47;;;;;;;6.63;4.57;;;15.00;99.90;;;;;;5098201;28;20040;-68
2021/08/29 06:43:14;;;;;;;11.82;5.07;;;15.20;99.90;;;;;;5098171;28;20103;-68
2021/08/29 06:45:40;;;;;;;10.20;4.97;;;15.40;99.90;;;;;;5098186;28;20019;-69
2021/08/29 06:48:06;;;;;;;10.77;5.03;;;15.60;99.90;;;;;;5096575;28;20028;-69
2021/08/29 06:50:32;;;;;;;9.48;3.85;;;16.00;99.90;;;;;;5097852;28;20357;-68
2021/08/29 06:52:58;;;;;;;9.98;4.45;;;16.10;99.90;;;;;;5097998;28;20542;-69
2021/08/29 06:55:24;;;;;;;8.82;4.22;;;16.40;99.90;;;;;;5096482;28;20024;-69
2021/08/29 06:57:50;;;;;;;13.57;4.20;;;16.50;99.90;;;;;;5096437;28;20097;-68
2021/08/29 07:00:16;;;;;;;12.02;3.92;;;16.50;99.90;;;;;;5097717;28;20059;-68
2021/08/29 07:02:42;;;;;;;8.73;4.10;;;16.90;99.90;;;;;;5097453;28;20016;-68
2021/08/29 07:05:08;;;;;;;7.65;4.07;;;17.00;99.90;;;;;;5097647;28;20500;-68
2021/08/29 07:07:34;;;;;;;8.70;4.13;;;17.10;99.90;;;;;;5097900;28;20023;-69
2021/08/29 07:10:00;;;;;;;10.07;4.07;;;17.20;99.90;;;;;;5097484;28;20024;-68
2021/08/29 07:12:26;;;;;;;7.97;4.15;;;17.30;99.90;;;;;;5097657;28;20087;-68
2021/08/29 07:14:52;;;;;;;10.77;4.13;;;17.30;99.90;;;;;;5097575;28;20476;-68
2021/08/29 07:17:18;;;;;;;12.57;3.90;;;17.30;99.90;;;;;;5097358;28;20024;-68
2021/08/29 07:19:47;;;;;;;7.63;3.75;;;17.30;99.90;;;;;;5097434;28;20028;-69
2021/08/29 07:22:13;;;;;;;8.75;4.68;;;17.40;99.90;;;;;;5097407;28;20024;-69
2021/08/29 07:24:39;;;;;;;11.38;4.05;;;17.40;99.90;;;;;;5097313;28;20024;-68
2021/08/29 07:27:06;;;;;;;9.68;3.75;;;17.50;99.90;;;;;;5097662;28;20012;-68
2021/08/29 07:29:32;;;;;;;8.63;3.60;;;17.80;99.90;;;;;;5097427;28;20507;-68
2021/08/29 07:31:58;;;;;;;12.40;4.03;;;17.80;99.90;;;;;;5096960;28;20480;-69
2021/08/29 07:34:24;;;;;;;9.07;3.70;;;17.90;99.90;;;;;;5097123;28;20034;-68
2021/08/29 07:36:51;;;;;;;9.32;3.65;;;18.00;99.90;;;;;;5097268;28;20024;-69
2021/08/29 07:39:17;;;;;;;5.07;2.72;;;18.10;99.90;;;;;;5096979;28;20079;-69
2021/08/29 07:41:43;;;;;;;5.88;3.40;;;18.20;99.90;;;;;;5097291;28;20451;-68
2021/08/29 07:44:09;;;;;;;8.95;3.92;;;18.30;99.90;;;;;;5097046;28;20051;-69
2021/08/29 07:46:34;;;;;;;8.07;3.17;;;18.40;99.90;;;;;;5097271;28;20511;-69
2021/08/29 07:49:00;;;;;;;9.70;3.58;;;18.60;99.90;;;;;;5096692;28;20156;-69
2021/08/29 07:51:26;;;;;;;11.10;4.28;;;18.70;99.90;;;;;;5097046;28;20490;-68
2021/08/29 07:53:52;;;;;;;4.90;2.60;;;18.80;99.90;;;;;;5096633;28;20024;-68
2021/08/29 07:56:18;;;;;;;10.98;3.42;;;18.80;99.90;;;;;;5097072;28;20035;-68
2021/08/29 07:58:44;;;;;;;7.18;2.63;;;19.00;99.90;;;;;;5096703;28;20040;-68
2021/08/29 08:01:09;;;;;;;9.20;3.20;;;18.90;99.90;;;;;;5096104;28;20365;-68
2021/08/29 08:03:37;;;;;;;6.35;2.97;;;19.00;99.90;;;;;;5096712;28;20056;-69
2021/08/29 08:06:07;;;;;;;7.60;2.58;;;19.20;99.90;;;;;;5097065;28;20016;-69
2021/08/29 08:08:33;;;;;;;11.20;4.43;;;19.40;99.90;;;;;;5096778;28;20024;-69
2021/08/29 08:10:59;;;;;;;5.63;2.47;;;19.30;99.90;;;;;;5096846;28;20387;-69
2021/08/29 08:13:25;;;;;;;7.63;3.00;;;19.60;99.90;;;;;;5096619;28;20028;-69
2021/08/29 08:15:51;;;;;;;7.18;2.40;;;20.00;99.90;;;;;;5096865;28;20526;-69
2021/08/29 08:18:16;;;;;;;8.75;3.03;;;20.20;99.90;;;;;;5096347;28;20040;-69
2021/08/29 08:20:42;;;;;;;4.38;2.40;;;20.50;99.90;;;;;;5096805;28;20077;-69
2021/08/29 08:23:08;;;;;;;7.95;3.17;;;;;;;;;;5096394;28;20035;-69
2021/08/29 08:25:34;;;;;;;7.22;2.80;;;21.40;99.90;;;;;;5096856;28;20025;-69
2021/08/29 08:28:00;;;;;;;7.35;2.42;;;21.50;99.90;;;;;;5096514;28;20035;-68
2021/08/29 08:30:26;;;;;;;5.65;2.78;;;;;;;;;;5096796;28;20028;-68
2021/08/29 08:32:52;;;;;;;6.13;2.45;;;22.50;99.90;;;;;;5094751;28;20050;-68
2021/08/29 08:35:18;;;;;;;7.10;2.40;;;22.70;99.90;;;;;;5096596;28;20554;-69
2021/08/29 08:37:44;;;;;;;8.77;2.88;;;22.80;99.90;;;;;;5096488;28;20028;-68
2021/08/29 08:40:10;;;;;;;7.95;2.50;;;22.90;99.90;;;;;;5096447;28;20028;-68
2021/08/29 08:42:38;;;;;;;8.43;2.85;;;;;;;;;;5096572;28;20107;-68
2021/08/29 08:45:06;;;;;;;7.13;2.53;;;23.50;99.90;;;;;;5096769;28;20067;-68
2021/08/29 08:47:32;;;;;;;4.22;1.75;;;;;;;;;;5096142;28;20502;-68
2021/08/29 08:50:00;;;;;;;10.35;2.80;;;24.30;99.90;;;;;;5096511;28;20032;-68
2021/08/29 08:52:28;;;;;;;5.88;2.33;;;24.50;99.90;;;;;;5096178;28;20398;-68
2021/08/29 08:54:59;;;;;;;5.03;1.83;;;24.60;99.90;;;;;;5096441;28;20028;-68
2021/08/29 08:57:25;;;;;;;5.95;2.63;;;24.80;99.90;;;;;;5096119;28;20051;-68
2021/08/29 08:59:50;;;;;;;2.92;1.83;;;25.00;99.90;;;;;;5096239;28;20081;-68
2021/08/29 09:02:21;;;;;;;6.32;2.28;;;25.20;99.90;;;;;;5095981;28;20026;-68
2021/08/29 09:04:53;;;;;;;4.70;2.08;;;;;;;;;;5096322;28;20020;-68
2021/08/29 09:07:19;;;;;;;8.40;2.67;;;25.60;99.90;;;;;;5096353;28;20028;-68
2021/08/29 09:09:46;;;;;;;6.40;2.03;;;25.80;99.90;;;;;;5096157;28;20020;-68
2021/08/29 09:12:12;;;;;;;4.75;2.20;;;25.80;99.90;;;;;;5096725;28;20456;-68
2021/08/29 09:14:44;;;;;;;6.47;2.22;;;25.80;99.90;;;;;;5099929;28;20055;-68
2021/08/29 09:17:26;;;;;;;5.63;2.50;;;;;;;;;;5099698;28;20078;-68
2021/08/29 09:20:12;;;;;;;5.65;2.08;;;;;;;;;;5099631;28;20024;-68
2021/08/29 09:22:40;;;;;;;5.60;1.90;;;26.70;96.30;;;;;;5099644;28;20047;-68
2021/08/29 09:25:11;;;;;;;3.97;1.95;;;26.50;95.40;;;;;;5099906;28;20067;-68
2021/08/29 09:27:46;;;;;;;7.03;2.20;;;26.00;95.20;;;;;;5099416;28;20030;-68
2021/08/29 09:30:14;;;;;;;3.97;2.30;;;25.70;95.40;;;;;;5099846;28;20028;-68
2021/08/29 09:32:58;;;;;;;5.75;1.60;;;25.20;95.40;;;;;;5099098;28;20369;-68
2021/08/29 09:35:31;;;;;;;5.65;2.10;;;25.20;96.80;;;;;;5099615;28;20024;-68
2021/08/29 09:37:59;;;;;;;8.18;2.33;;;25.90;96.90;;;;;;5098059;28;20114;-68
2021/08/29 09:40:32;;;;;;;4.25;1.83;;;26.80;96.10;;;;;;5099476;28;20080;-68
2021/08/29 09:42:59;;;;;;;6.93;1.98;;;27.60;94.20;;;;;;5099442;28;20024;-68
2021/08/29 09:45:33;;;;;;;5.78;2.20;;;26.90;93.00;;;;;;5099400;28;20507;-68
2021/08/29 09:48:03;;;;;;;6.65;1.80;;;26.00;93.50;;;;;;5099011;28;20221;-68
2021/08/29 09:50:30;;;;;;;3.42;1.60;;;25.40;93.50;;;;;;5099239;28;20016;-68
2021/08/29 09:53:19;;;;;;;7.78;2.42;;;24.40;94.40;;;;;;5099206;28;20035;-68
2021/08/29 09:55:47;;;;;;;3.40;1.73;;;23.70;95.20;;;;;;5099058;28;20047;-68
2021/08/29 09:58:21;;;;;;;2.03;1.30;;;24.10;97.00;;;;;;5098876;28;20485;-68
2021/08/29 10:01:14;;;;;;;3.55;1.67;;;24.40;95.30;;;;;;5099100;28;20016;-68
2021/08/29 10:03:41;;;;;;;2.90;1.45;;;24.60;95.70;;;;;;5096676;28;20032;-68
2021/08/29 10:06:28;;;;;;;6.05;1.75;;;24.60;95.40;;;;;;5099172;28;20532;-68
2021/08/29 10:08:59;;;;;;;5.65;2.50;;;25.20;96.50;;;;;;5098908;28;20028;-68
2021/08/29 10:11:32;;;;;;;4.03;1.90;;;26.60;99.90;;;;;;5098714;28;20027;-68
2021/08/29 10:13:59;;;;;;;3.80;1.70;;;27.00;93.60;;;;;;5098897;28;20023;-68
2021/08/29 10:16:27;;;;;;;5.70;1.42;;;27.80;91.60;;;;;;5098740;28;20039;-68
2021/08/29 10:18:56;;;;;;;2.70;1.50;;;28.00;92.40;;;;;;5098447;28;20020;-68
2021/08/29 10:21:27;;;;;;;2.10;1.10;;;28.20;91.20;;;;;;5097509;28;20028;-68
2021/08/29 10:23:54;;;;;;;9.65;1.85;;;28.50;91.80;;;;;;5097733;28;20472;-68
2021/08/29 10:26:22;;;;;;;3.95;1.80;;;29.30;90.70;;;;;;5098398;28;20107;-68
2021/08/29 10:29:11;;;;;;;3.60;1.50;;;29.40;88.40;;;;;;5098545;28;20548;-68
2021/08/29 10:31:53;;;;;;;3.63;1.20;;;29.10;85.80;;;;;;5098286;28;20028;-68
2021/08/29 10:34:20;;;;;;;2.35;1.55;;;28.40;86.80;;;;;;5098216;28;20024;-68
2021/08/29 10:36:46;;;;;;;2.97;1.70;;;27.70;87.80;;;;;;5098528;28;20028;-68
2021/08/29 10:39:14;;;;;;;2.35;1.65;;;25.70;89.40;;;;;;5098007;28;20078;-67
2021/08/29 10:41:42;;;;;;;3.83;1.88;;;25.50;90.10;;;;;;5098289;28;20024;-67
2021/08/29 10:44:12;;;;;;;5.90;2.22;;;23.80;91.60;;;;;;5098132;28;20148;-69
2021/08/29 10:46:44;;;;;;;3.40;1.60;;;23.80;91.80;;;;;;5098166;28;20026;-68
2021/08/29 10:49:11;;;;;;;6.07;1.38;;;23.30;99.90;;;;;;5097924;28;20103;-69
2021/08/29 10:51:37;;;;;;;4.32;1.60;;;23.40;99.90;;;;;;5098111;28;20077;-68
2021/08/29 10:54:11;;;;;;;6.40;1.75;;;24.30;99.90;;;;;;5097974;28;20024;-69
2021/08/29 10:56:37;;;;;;;7.78;2.17;;;27.70;90.90;;;;;;5097887;28;20558;-67
2021/08/29 10:59:10;;;;;;;5.32;1.50;;;28.10;87.50;;;;;;5097676;28;20036;-67
2021/08/29 11:01:36;;;;;;;4.05;1.77;;;28.00;87.00;;;;;;5097744;28;20031;-66
2021/08/29 11:04:17;;;;;;;3.63;1.40;;;27.20;87.70;;;;;;5097775;28;20472;-66
2021/08/29 11:06:47;;;;;;;4.32;1.92;;;26.50;88.40;;;;;;5097671;28;20416;-66
2021/08/29 11:09:34;;;;;;;2.47;1.52;;;26.70;90.40;;;;;;5097697;28;20112;-66
2021/08/29 11:12:05;;;;;;;4.18;1.50;;;27.00;89.00;;;;;;5097470;28;20529;-67
2021/08/29 11:14:53;;;;;;;4.63;1.58;;;;;;;;;;5097763;28;20153;-67
2021/08/29 11:17:20;;;;;;;3.30;1.65;;;;;;;;;;5097539;28;20081;-66
2021/08/29 11:19:47;;;;;;;3.53;1.63;;;24.50;90.00;;;;;;5097315;28;20026;-66
2021/08/29 11:22:16;;;;;;;7.35;2.30;;;24.50;99.90;;;;;;5097571;28;20020;-67
2021/08/29 11:25:02;;;;;;;6.38;1.67;;;24.70;92.10;;;;;;5097268;28;20080;-66
2021/08/29 11:27:47;;;;;;;3.83;1.80;;;24.60;94.30;;;;;;5097518;28;20027;-66
2021/08/29 11:30:24;;;;;;;3.70;1.58;;;24.20;91.60;;;;;;5097612;28;20028;-66
2021/08/29 11:32:58;;;;;;;4.22;1.80;;;23.90;92.20;;;;;;5096677;28;20517;-67
2021/08/29 11:35:27;;;;;;;3.92;1.65;;;23.70;93.20;;;;;;5097375;28;20052;-66
2021/08/29 11:38:10;;;;;;;3.38;1.42;;;23.90;93.00;;;;;;5097103;28;20023;-66
2021/08/29 11:40:55;;;;;;;4.72;1.88;;;23.80;92.80;;;;;;5097334;28;20701;-66
2021/08/29 11:43:41;;;;;;;5.30;1.80;;;23.80;93.90;;;;;;5097240;28;20534;-67
2021/08/29 11:46:12;;;;;;;;;;;25.30;93.30;;;;;;5097450;28;20472;-66
2021/08/29 11:49:00;;;;;;;4.57;2.40;;;26.00;90.00;;;;;;5096834;28;20389;-66
2021/08/29 11:51:52;;;;;;;5.13;1.85;;;26.40;88.30;;;;;;5097055;28;20135;-66
2021/08/29 11:54:20;;;;;;;2.92;1.70;;;27.10;87.60;;;;;;5081135;28;20036;-66
2021/08/29 11:56:45;;;;;;;5.78;1.50;;;29.10;86.80;;;;;;5095522;28;20028;-68
2021/08/29 11:59:14;;;;;;;3.75;1.67;;;29.10;87.40;;;;;;5096902;28;20039;-66
2021/08/29 12:01:40;;;;;;;3.13;1.58;;;30.40;84.10;;;;;;5096729;28;20028;-67
2021/08/29 12:04:07;;;;;;;2.72;1.50;;;31.30;78.50;;;;;;5097199;28;20039;-67
2021/08/29 12:06:36;;;;;;;2.83;1.13;;;31.90;78.80;;;;;;5097187;28;20070;-67
2021/08/29 12:09:41;;;;;;;2.63;1.17;;;32.70;77.70;;;;;;5096929;28;20024;-67
2021/08/29 12:12:17;;;;;;;3.33;1.40;;;33.40;73.50;;;;;;5096597;28;20488;-67
2021/08/29 12:14:44;;;;;;;4.43;1.27;;;32.60;72.00;;;;;;5096813;28;20054;-66
2021/08/29 12:17:12;;;;;;;2.10;1.08;;;31.20;74.40;;;;;;5096554;28;20107;-67
2021/08/29 12:19:40;;;;;;;2.58;1.02;;;30.40;74.00;;;;;;5096707;28;20032;-67
2021/08/29 12:22:10;;;;;;;1.92;1.10;;;30.10;75.40;;;;;;5096865;28;20017;-67
2021/08/29 12:24:37;;;;;;;2.28;1.10;;;30.10;76.10;;;;;;5096556;28;20024;-67
2021/08/29 12:27:13;;;;;;;4.53;1.60;;;30.30;77.40;;;;;;5096918;28;20020;-67
2021/08/29 12:29:57;;;;;;;3.47;1.80;;;31.60;76.20;;;;;;5096495;28;20028;-67
2021/08/29 12:32:31;;;;;;;2.63;1.40;;;29.90;71.10;;;;;;5096382;28;20031;-67
2021/08/29 12:35:12;;;;;;;2.03;1.20;;;29.80;71.80;;;;;;5083943;28;20028;-67
2021/08/29 12:37:44;;;;;;;4.55;1.98;;;27.30;76.60;;;;;;5095141;28;20028;-66
2021/08/29 12:40:19;;;;;;;2.42;1.23;;;27.10;79.20;;;;;;5096345;28;20032;-67
2021/08/29 12:42:46;;;;;;;1.63;1.08;;;25.80;79.30;;;;;;5096415;28;20024;-66
2021/08/29 12:45:15;;;;;;;3.60;1.48;;;25.80;83.90;;;;;;5096613;28;20127;-67
2021/08/29 12:47:43;;;;;;;2.05;1.38;;;26.90;83.00;;;;;;5097557;28;20019;-67
2021/08/29 12:50:11;;;;;;;2.95;1.60;;;27.60;78.00;;;;;;5100497;28;20083;-67
2021/08/29 12:52:44;;;;;;;2.30;1.17;;;28.10;80.00;;;;;;5100239;28;20370;-67
2021/08/29 12:55:12;;;;;;;1.42;0.90;;;31.00;75.30;;;;;;5100297;28;20056;-67